RZO1067 LPPT-LPMA
Flight info
| Callsign | RZO1067 |
|---|---|
| Flight time | 1h 32m |
| Altitude | 37000 |
| Route | ULVOT DCT GALPA DCT RAKUN |
| Aircraft | A20N/M-SDE2E3FGHIRWXY/LB1 |
Departure
| Time | 2026-05-08 10:32 |
|---|---|
| Airport | Lisbon Humberto Delgado Airport (LPPT) |
Arrival
| Time | 2026-05-08 12:04 |
|---|---|
| Airport | Cristiano Ronaldo International Airport (LPMA) |
| Time | Latitude | Longitude | Altitude | Speed | Heading |
|---|---|---|---|---|---|
| 2026-05-08 10:07 | 38.76761 | -9.13009 | 333 ft | 0 kts | 78° |
| 2026-05-08 10:20 | 38.76759 | -9.13018 | 337 ft | 1 kts | 64° |
| 2026-05-08 10:20 | 38.76756 | -9.13027 | 331 ft | 1 kts | 49° |
| 2026-05-08 10:20 | 38.76747 | -9.13039 | 333 ft | 2 kts | 44° |
| 2026-05-08 10:21 | 38.76737 | -9.13051 | 337 ft | 2 kts | 39° |
| 2026-05-08 10:21 | 38.76725 | -9.13062 | 332 ft | 2 kts | 33° |
| 2026-05-08 10:21 | 38.76713 | -9.13071 | 335 ft | 2 kts | 24° |
| 2026-05-08 10:21 | 38.76700 | -9.13078 | 333 ft | 2 kts | 14° |
| 2026-05-08 10:22 | 38.76686 | -9.13081 | 336 ft | 2 kts | 4° |
| 2026-05-08 10:22 | 38.76672 | -9.13081 | 335 ft | 2 kts | 353° |
| 2026-05-08 10:22 | 38.76671 | -9.13081 | 335 ft | 0 kts | 353° |
| 2026-05-08 10:25 | 38.76685 | -9.13085 | 334 ft | 4 kts | 347° |
| 2026-05-08 10:26 | 38.76728 | -9.13098 | 338 ft | 8 kts | 347° |
| 2026-05-08 10:26 | 38.76783 | -9.13114 | 335 ft | 9 kts | 348° |
| 2026-05-08 10:26 | 38.76858 | -9.13134 | 336 ft | 13 kts | 348° |
| 2026-05-08 10:26 | 38.76954 | -9.13159 | 336 ft | 16 kts | 348° |
| 2026-05-08 10:27 | 38.77074 | -9.13192 | 334 ft | 19 kts | 347° |
| 2026-05-08 10:27 | 38.77213 | -9.13229 | 333 ft | 21 kts | 348° |
| 2026-05-08 10:27 | 38.77351 | -9.13261 | 334 ft | 20 kts | 352° |
| 2026-05-08 10:27 | 38.77490 | -9.13297 | 336 ft | 22 kts | 348° |
| 2026-05-08 10:28 | 38.77628 | -9.13321 | 336 ft | 21 kts | 1° |
| 2026-05-08 10:28 | 38.77736 | -9.13340 | 341 ft | 15 kts | 348° |
| 2026-05-08 10:28 | 38.77827 | -9.13365 | 347 ft | 13 kts | 348° |
| 2026-05-08 10:28 | 38.77916 | -9.13389 | 351 ft | 13 kts | 348° |
| 2026-05-08 10:29 | 38.78001 | -9.13413 | 358 ft | 12 kts | 348° |
| 2026-05-08 10:29 | 38.78081 | -9.13391 | 361 ft | 13 kts | 21° |
| 2026-05-08 10:29 | 38.78173 | -9.13343 | 363 ft | 16 kts | 22° |
| 2026-05-08 10:29 | 38.78282 | -9.13285 | 358 ft | 18 kts | 22° |
| 2026-05-08 10:30 | 38.78399 | -9.13223 | 360 ft | 16 kts | 17° |
| 2026-05-08 10:30 | 38.78467 | -9.13226 | 360 ft | 10 kts | 348° |
| 2026-05-08 10:30 | 38.78532 | -9.13273 | 364 ft | 11 kts | 301° |
| 2026-05-08 10:30 | 38.78556 | -9.13343 | 361 ft | 7 kts | 293° |
| 2026-05-08 10:31 | 38.78537 | -9.13378 | 362 ft | 6 kts | 200° |
| 2026-05-08 10:31 | 38.78431 | -9.13432 | 364 ft | 43 kts | 202° |
| 2026-05-08 10:31 | 38.77940 | -9.13695 | 367 ft | 107 kts | 202° |
| 2026-05-08 10:31 | 38.77095 | -9.14143 | 362 ft | 155 kts | 200° |
| 2026-05-08 10:32 | 38.76071 | -9.14723 | 934 ft | 158 kts | 201° |
| 2026-05-08 10:32 | 38.75106 | -9.15291 | 1626 ft | 154 kts | 202° |
| 2026-05-08 10:32 | 38.74118 | -9.15911 | 2336 ft | 158 kts | 204° |
| 2026-05-08 10:32 | 38.73148 | -9.16553 | 2995 ft | 157 kts | 206° |
| 2026-05-08 10:33 | 38.72144 | -9.17234 | 3519 ft | 165 kts | 203° |
| 2026-05-08 10:33 | 38.71056 | -9.17750 | 4156 ft | 175 kts | 198° |
| 2026-05-08 10:33 | 38.69821 | -9.18242 | 4640 ft | 196 kts | 198° |
| 2026-05-08 10:33 | 38.68461 | -9.18834 | 5107 ft | 218 kts | 200° |
| 2026-05-08 10:34 | 38.66965 | -9.19561 | 5587 ft | 242 kts | 201° |
| 2026-05-08 10:34 | 38.65359 | -9.20393 | 6368 ft | 253 kts | 202° |
| 2026-05-08 10:34 | 38.63721 | -9.21218 | 7221 ft | 259 kts | 198° |
| 2026-05-08 10:34 | 38.61972 | -9.21837 | 8192 ft | 262 kts | 196° |
| 2026-05-08 10:35 | 38.60188 | -9.22460 | 9125 ft | 267 kts | 196° |
| 2026-05-08 10:35 | 38.58383 | -9.23093 | 10045 ft | 272 kts | 197° |
| 2026-05-08 10:35 | 38.56501 | -9.23784 | 10572 ft | 292 kts | 200° |
| 2026-05-08 10:35 | 38.54560 | -9.24846 | 10943 ft | 314 kts | 207° |
| 2026-05-08 10:36 | 38.52586 | -9.26111 | 11558 ft | 324 kts | 207° |
| 2026-05-08 10:36 | 38.50553 | -9.27402 | 12420 ft | 327 kts | 207° |
| 2026-05-08 10:36 | 38.48494 | -9.28704 | 13249 ft | 332 kts | 208° |
| 2026-05-08 10:36 | 38.46410 | -9.30018 | 14038 ft | 336 kts | 208° |
| 2026-05-08 10:37 | 38.44306 | -9.31344 | 14803 ft | 338 kts | 208° |
| 2026-05-08 10:37 | 38.42213 | -9.32663 | 15552 ft | 341 kts | 208° |
| 2026-05-08 10:37 | 38.40071 | -9.34011 | 16291 ft | 345 kts | 208° |
| 2026-05-08 10:37 | 38.37910 | -9.35371 | 17025 ft | 348 kts | 208° |
| 2026-05-08 10:38 | 38.35726 | -9.36745 | 17748 ft | 351 kts | 207° |
| 2026-05-08 10:38 | 38.33526 | -9.38127 | 18441 ft | 354 kts | 208° |
| 2026-05-08 10:38 | 38.31305 | -9.39521 | 19083 ft | 356 kts | 208° |
| 2026-05-08 10:38 | 38.29069 | -9.40924 | 19715 ft | 359 kts | 208° |
| 2026-05-08 10:39 | 38.26821 | -9.42332 | 20364 ft | 360 kts | 208° |
| 2026-05-08 10:39 | 38.24604 | -9.43720 | 21083 ft | 360 kts | 208° |
| 2026-05-08 10:39 | 38.22332 | -9.45142 | 21663 ft | 364 kts | 209° |
| 2026-05-08 10:39 | 38.20049 | -9.46572 | 22289 ft | 367 kts | 209° |
| 2026-05-08 10:40 | 38.17770 | -9.47998 | 22867 ft | 370 kts | 209° |
| 2026-05-08 10:40 | 38.15446 | -9.49449 | 23469 ft | 373 kts | 209° |
| 2026-05-08 10:40 | 38.13107 | -9.50909 | 23996 ft | 374 kts | 209° |
| 2026-05-08 10:40 | 38.10766 | -9.52369 | 24547 ft | 375 kts | 210° |
| 2026-05-08 10:41 | 38.08416 | -9.53834 | 25060 ft | 377 kts | 210° |
| 2026-05-08 10:41 | 38.06053 | -9.55306 | 25562 ft | 378 kts | 210° |
| 2026-05-08 10:41 | 38.03685 | -9.56780 | 26064 ft | 380 kts | 210° |
| 2026-05-08 10:41 | 38.01351 | -9.58288 | 26545 ft | 380 kts | 213° |
| 2026-05-08 10:42 | 37.99121 | -9.60091 | 27015 ft | 379 kts | 218° |
| 2026-05-08 10:42 | 37.97057 | -9.62178 | 27474 ft | 379 kts | 223° |
| 2026-05-08 10:42 | 37.95044 | -9.64350 | 27920 ft | 381 kts | 222° |
| 2026-05-08 10:42 | 37.93012 | -9.66528 | 28362 ft | 382 kts | 222° |
| 2026-05-08 10:43 | 37.90975 | -9.68704 | 28769 ft | 384 kts | 222° |
| 2026-05-08 10:43 | 37.88954 | -9.70858 | 29171 ft | 385 kts | 222° |
| 2026-05-08 10:43 | 37.86901 | -9.73043 | 29557 ft | 387 kts | 222° |
| 2026-05-08 10:43 | 37.84836 | -9.75239 | 29948 ft | 388 kts | 222° |
| 2026-05-08 10:44 | 37.82758 | -9.77447 | 30288 ft | 390 kts | 222° |
| 2026-05-08 10:44 | 37.80679 | -9.79656 | 30632 ft | 391 kts | 222° |
| 2026-05-08 10:44 | 37.79293 | -9.81128 | 30850 ft | 392 kts | 222° |
| 2026-05-08 10:44 | 37.77201 | -9.83347 | 31229 ft | 391 kts | 222° |
| 2026-05-08 10:45 | 37.74449 | -9.86267 | 31866 ft | 388 kts | 221° |
| 2026-05-08 10:45 | 37.73048 | -9.87751 | 32169 ft | 387 kts | 221° |
| 2026-05-08 10:45 | 37.71016 | -9.89902 | 32618 ft | 385 kts | 221° |
| 2026-05-08 10:45 | 37.68964 | -9.92073 | 33057 ft | 383 kts | 221° |
| 2026-05-08 10:46 | 37.66925 | -9.94228 | 33484 ft | 381 kts | 221° |
| 2026-05-08 10:46 | 37.64890 | -9.96378 | 33886 ft | 379 kts | 221° |
| 2026-05-08 10:46 | 37.62938 | -9.98557 | 34174 ft | 378 kts | 225° |
| 2026-05-08 10:46 | 37.61140 | -10.00983 | 34388 ft | 379 kts | 230° |
| 2026-05-08 10:47 | 37.59487 | -10.03585 | 34598 ft | 380 kts | 231° |
| 2026-05-08 10:47 | 37.57830 | -10.06209 | 34830 ft | 381 kts | 231° |
| 2026-05-08 10:47 | 37.56168 | -10.08828 | 35056 ft | 382 kts | 231° |
| 2026-05-08 10:47 | 37.54511 | -10.11435 | 35268 ft | 383 kts | 231° |
| 2026-05-08 10:48 | 37.52847 | -10.14051 | 35473 ft | 383 kts | 231° |
| 2026-05-08 10:48 | 37.51184 | -10.16665 | 35662 ft | 384 kts | 232° |
| 2026-05-08 10:48 | 37.49504 | -10.19301 | 35949 ft | 383 kts | 232° |
| 2026-05-08 10:48 | 37.47852 | -10.21896 | 36142 ft | 384 kts | 231° |
| 2026-05-08 10:49 | 37.46186 | -10.24510 | 36329 ft | 385 kts | 232° |
| 2026-05-08 10:49 | 37.44484 | -10.27176 | 36533 ft | 385 kts | 232° |
| 2026-05-08 10:49 | 37.42812 | -10.29792 | 36719 ft | 386 kts | 232° |
| 2026-05-08 10:49 | 37.41144 | -10.32400 | 36892 ft | 387 kts | 232° |
| 2026-05-08 10:50 | 37.39436 | -10.35068 | 36880 ft | 386 kts | 232° |
| 2026-05-08 10:50 | 37.36088 | -10.40292 | 36891 ft | 385 kts | 232° |
| 2026-05-08 10:51 | 37.32723 | -10.45532 | 36878 ft | 385 kts | 232° |
| 2026-05-08 10:51 | 37.29354 | -10.50770 | 36878 ft | 385 kts | 232° |
| 2026-05-08 10:52 | 37.26003 | -10.55972 | 36887 ft | 385 kts | 232° |
| 2026-05-08 10:52 | 37.22642 | -10.61184 | 36887 ft | 383 kts | 231° |
| 2026-05-08 10:53 | 37.19291 | -10.66368 | 36873 ft | 382 kts | 231° |
| 2026-05-08 10:53 | 37.15931 | -10.71559 | 36881 ft | 383 kts | 231° |
| 2026-05-08 10:54 | 37.12587 | -10.76719 | 36868 ft | 382 kts | 231° |
| 2026-05-08 10:54 | 37.09220 | -10.81905 | 36876 ft | 382 kts | 231° |
| 2026-05-08 10:55 | 37.05860 | -10.87073 | 36866 ft | 383 kts | 231° |
| 2026-05-08 10:55 | 37.02509 | -10.92218 | 36868 ft | 383 kts | 231° |
| 2026-05-08 10:56 | 36.99132 | -10.97397 | 36862 ft | 383 kts | 231° |
| 2026-05-08 10:56 | 36.95769 | -11.02545 | 36849 ft | 383 kts | 231° |
| 2026-05-08 10:57 | 36.92396 | -11.07700 | 36862 ft | 383 kts | 231° |
| 2026-05-08 10:57 | 36.87324 | -11.15436 | 36861 ft | 383 kts | 231° |
| 2026-05-08 10:58 | 36.83958 | -11.20562 | 36858 ft | 383 kts | 231° |
| 2026-05-08 10:58 | 36.80577 | -11.25701 | 36859 ft | 383 kts | 231° |
| 2026-05-08 10:59 | 36.77191 | -11.30841 | 36858 ft | 383 kts | 231° |
| 2026-05-08 10:59 | 36.73797 | -11.35986 | 36847 ft | 384 kts | 231° |
| 2026-05-08 11:00 | 36.70416 | -11.41103 | 36848 ft | 385 kts | 231° |
| 2026-05-08 11:00 | 36.67001 | -11.46262 | 36845 ft | 384 kts | 231° |
| 2026-05-08 11:01 | 36.63604 | -11.51387 | 36852 ft | 385 kts | 231° |
| 2026-05-08 11:01 | 36.60189 | -11.56531 | 36849 ft | 384 kts | 231° |
| 2026-05-08 11:02 | 36.55071 | -11.64225 | 36846 ft | 384 kts | 231° |
| 2026-05-08 11:03 | 36.51660 | -11.69344 | 36851 ft | 384 kts | 231° |
| 2026-05-08 11:03 | 36.48257 | -11.74442 | 36851 ft | 385 kts | 230° |
| 2026-05-08 11:04 | 36.44829 | -11.79571 | 36841 ft | 385 kts | 230° |
| 2026-05-08 11:04 | 36.41427 | -11.84652 | 36840 ft | 385 kts | 230° |
| 2026-05-08 11:05 | 36.37998 | -11.89764 | 36831 ft | 379 kts | 231° |
| 2026-05-08 11:05 | 36.34645 | -11.94759 | 36836 ft | 379 kts | 231° |
| 2026-05-08 11:06 | 36.31262 | -11.99791 | 36840 ft | 379 kts | 231° |
| 2026-05-08 11:06 | 36.27901 | -12.04782 | 36848 ft | 379 kts | 231° |
| 2026-05-08 11:07 | 36.24470 | -12.09871 | 36827 ft | 385 kts | 231° |
| 2026-05-08 11:07 | 36.21043 | -12.14942 | 36831 ft | 383 kts | 231° |
| 2026-05-08 11:08 | 36.17626 | -12.19992 | 36825 ft | 384 kts | 231° |
| 2026-05-08 11:08 | 36.14184 | -12.25073 | 36826 ft | 384 kts | 231° |
| 2026-05-08 11:09 | 36.10762 | -12.30115 | 36806 ft | 383 kts | 231° |
| 2026-05-08 11:09 | 36.07367 | -12.35112 | 36823 ft | 378 kts | 231° |
| 2026-05-08 11:10 | 36.03983 | -12.40084 | 36820 ft | 379 kts | 231° |
| 2026-05-08 11:10 | 36.00570 | -12.45088 | 36819 ft | 379 kts | 231° |
| 2026-05-08 11:11 | 35.97173 | -12.50068 | 36830 ft | 381 kts | 231° |
| 2026-05-08 11:11 | 35.93761 | -12.55088 | 36815 ft | 379 kts | 231° |
| 2026-05-08 11:12 | 35.90370 | -12.60022 | 36818 ft | 379 kts | 231° |
| 2026-05-08 11:12 | 35.86941 | -12.65006 | 36819 ft | 380 kts | 231° |
| 2026-05-08 11:13 | 35.83550 | -12.69941 | 36811 ft | 379 kts | 231° |
| 2026-05-08 11:13 | 35.80141 | -12.74898 | 36813 ft | 376 kts | 231° |
| 2026-05-08 11:14 | 35.76748 | -12.79828 | 36811 ft | 378 kts | 231° |
| 2026-05-08 11:14 | 35.73346 | -12.84762 | 36817 ft | 377 kts | 231° |
| 2026-05-08 11:15 | 35.69944 | -12.89691 | 36812 ft | 378 kts | 231° |
| 2026-05-08 11:15 | 35.66556 | -12.94591 | 36814 ft | 378 kts | 231° |
| 2026-05-08 11:16 | 35.63147 | -12.99513 | 36810 ft | 378 kts | 231° |
| 2026-05-08 11:16 | 35.59731 | -13.04439 | 36809 ft | 378 kts | 231° |
| 2026-05-08 11:17 | 35.56341 | -13.09322 | 36802 ft | 378 kts | 231° |
| 2026-05-08 11:17 | 35.52923 | -13.14237 | 36840 ft | 378 kts | 231° |
| 2026-05-08 11:18 | 35.49514 | -13.19134 | 36811 ft | 378 kts | 231° |
| 2026-05-08 11:18 | 35.46079 | -13.24058 | 36809 ft | 378 kts | 230° |
| 2026-05-08 11:19 | 35.42668 | -13.28941 | 36804 ft | 378 kts | 230° |
| 2026-05-08 11:19 | 35.39240 | -13.33841 | 36803 ft | 378 kts | 230° |
| 2026-05-08 11:20 | 35.35821 | -13.38722 | 36799 ft | 378 kts | 230° |
| 2026-05-08 11:20 | 35.32404 | -13.43594 | 36802 ft | 378 kts | 230° |
| 2026-05-08 11:21 | 35.28953 | -13.48506 | 36811 ft | 378 kts | 230° |
| 2026-05-08 11:21 | 35.25514 | -13.53394 | 36785 ft | 379 kts | 230° |
| 2026-05-08 11:22 | 35.22093 | -13.58250 | 36787 ft | 379 kts | 230° |
| 2026-05-08 11:22 | 35.18653 | -13.63126 | 36788 ft | 379 kts | 230° |
| 2026-05-08 11:23 | 35.15188 | -13.68030 | 36793 ft | 380 kts | 230° |
| 2026-05-08 11:23 | 35.11738 | -13.72907 | 36801 ft | 380 kts | 230° |
| 2026-05-08 11:24 | 35.08278 | -13.77791 | 36793 ft | 381 kts | 230° |
| 2026-05-08 11:24 | 35.04798 | -13.82696 | 36795 ft | 381 kts | 230° |
| 2026-05-08 11:25 | 35.01394 | -13.87486 | 36803 ft | 385 kts | 230° |
| 2026-05-08 11:25 | 34.97842 | -13.92480 | 36801 ft | 388 kts | 230° |
| 2026-05-08 11:26 | 34.94311 | -13.97434 | 36796 ft | 387 kts | 230° |
| 2026-05-08 11:26 | 34.90808 | -14.02339 | 36796 ft | 381 kts | 230° |
| 2026-05-08 11:27 | 34.87334 | -14.07203 | 36802 ft | 383 kts | 230° |
| 2026-05-08 11:27 | 34.83828 | -14.12104 | 36797 ft | 382 kts | 230° |
| 2026-05-08 11:28 | 34.80330 | -14.16986 | 36807 ft | 383 kts | 230° |
| 2026-05-08 11:28 | 34.76824 | -14.21871 | 36834 ft | 383 kts | 230° |
| 2026-05-08 11:29 | 34.73290 | -14.26790 | 36801 ft | 391 kts | 230° |
| 2026-05-08 11:29 | 34.70299 | -14.30946 | 36802 ft | 389 kts | 230° |
| 2026-05-08 11:30 | 34.66745 | -14.35878 | 36809 ft | 389 kts | 230° |
| 2026-05-08 11:30 | 34.62594 | -14.41629 | 36797 ft | 385 kts | 231° |
| 2026-05-08 11:31 | 34.59669 | -14.45676 | 36807 ft | 383 kts | 231° |
| 2026-05-08 11:31 | 34.56140 | -14.50556 | 36810 ft | 384 kts | 231° |
| 2026-05-08 11:32 | 34.52620 | -14.55416 | 36804 ft | 384 kts | 231° |
| 2026-05-08 11:32 | 34.49080 | -14.60298 | 36809 ft | 389 kts | 231° |
| 2026-05-08 11:33 | 34.45509 | -14.65218 | 36814 ft | 388 kts | 231° |
| 2026-05-08 11:33 | 34.41931 | -14.70141 | 36806 ft | 388 kts | 231° |
| 2026-05-08 11:34 | 34.38292 | -14.74956 | 36813 ft | 389 kts | 228° |
| 2026-05-08 11:34 | 34.34539 | -14.79688 | 36804 ft | 389 kts | 229° |
| 2026-05-08 11:35 | 34.30837 | -14.84389 | 36818 ft | 385 kts | 229° |
| 2026-05-08 11:35 | 34.27111 | -14.89106 | 36817 ft | 386 kts | 229° |
| 2026-05-08 11:36 | 34.23417 | -14.93767 | 36817 ft | 386 kts | 229° |
| 2026-05-08 11:36 | 34.19663 | -14.98496 | 36823 ft | 388 kts | 230° |
| 2026-05-08 11:37 | 34.15942 | -15.03177 | 36532 ft | 386 kts | 229° |
| 2026-05-08 11:37 | 34.14086 | -15.05509 | 36284 ft | 383 kts | 229° |
| 2026-05-08 11:37 | 34.12239 | -15.07829 | 36041 ft | 381 kts | 229° |
| 2026-05-08 11:37 | 34.10403 | -15.10133 | 35797 ft | 380 kts | 229° |
| 2026-05-08 11:38 | 34.08593 | -15.12405 | 35562 ft | 379 kts | 229° |
| 2026-05-08 11:38 | 34.06765 | -15.14697 | 35318 ft | 378 kts | 229° |
| 2026-05-08 11:38 | 34.04942 | -15.16981 | 35050 ft | 377 kts | 229° |
| 2026-05-08 11:38 | 34.03120 | -15.19261 | 34489 ft | 377 kts | 229° |
| 2026-05-08 11:39 | 34.01296 | -15.21542 | 33776 ft | 378 kts | 229° |
| 2026-05-08 11:39 | 33.99461 | -15.23837 | 32886 ft | 379 kts | 229° |
| 2026-05-08 11:39 | 33.97663 | -15.26083 | 32245 ft | 376 kts | 229° |
| 2026-05-08 11:39 | 33.95850 | -15.28344 | 31542 ft | 373 kts | 229° |
| 2026-05-08 11:40 | 33.94049 | -15.30591 | 30951 ft | 369 kts | 229° |
| 2026-05-08 11:40 | 33.92281 | -15.32793 | 30487 ft | 362 kts | 229° |
| 2026-05-08 11:40 | 33.90544 | -15.34956 | 29998 ft | 356 kts | 230° |
| 2026-05-08 11:40 | 33.88834 | -15.37086 | 29483 ft | 349 kts | 230° |
| 2026-05-08 11:41 | 33.87166 | -15.39162 | 29021 ft | 341 kts | 230° |
| 2026-05-08 11:41 | 33.85530 | -15.41197 | 28561 ft | 334 kts | 230° |
| 2026-05-08 11:41 | 33.83950 | -15.43163 | 28140 ft | 327 kts | 230° |
| 2026-05-08 11:41 | 33.82378 | -15.45117 | 27714 ft | 323 kts | 230° |
| 2026-05-08 11:42 | 33.80766 | -15.47129 | 27281 ft | 344 kts | 230° |
| 2026-05-08 11:42 | 33.79071 | -15.49241 | 26817 ft | 352 kts | 229° |
| 2026-05-08 11:42 | 33.77384 | -15.51333 | 26348 ft | 351 kts | 229° |
| 2026-05-08 11:42 | 33.75691 | -15.53428 | 25892 ft | 346 kts | 229° |
| 2026-05-08 11:43 | 33.74020 | -15.55493 | 25370 ft | 339 kts | 229° |
| 2026-05-08 11:43 | 33.72390 | -15.57505 | 24990 ft | 330 kts | 229° |
| 2026-05-08 11:43 | 33.70825 | -15.59440 | 24561 ft | 323 kts | 230° |
| 2026-05-08 11:43 | 33.69272 | -15.61362 | 24136 ft | 317 kts | 230° |
| 2026-05-08 11:44 | 33.67746 | -15.63250 | 23711 ft | 311 kts | 230° |
| 2026-05-08 11:44 | 33.66248 | -15.65101 | 23243 ft | 307 kts | 230° |
| 2026-05-08 11:44 | 33.64772 | -15.66924 | 22825 ft | 300 kts | 230° |
| 2026-05-08 11:44 | 33.63320 | -15.68716 | 22434 ft | 305 kts | 230° |
| 2026-05-08 11:45 | 33.61804 | -15.70601 | 22003 ft | 329 kts | 230° |
| 2026-05-08 11:45 | 33.60186 | -15.72604 | 21544 ft | 338 kts | 229° |
| 2026-05-08 11:45 | 33.58538 | -15.74632 | 21063 ft | 338 kts | 229° |
| 2026-05-08 11:45 | 33.56900 | -15.76642 | 20608 ft | 334 kts | 229° |
| 2026-05-08 11:46 | 33.55289 | -15.78619 | 20151 ft | 327 kts | 229° |
| 2026-05-08 11:46 | 33.53702 | -15.80509 | 19703 ft | 322 kts | 228° |
| 2026-05-08 11:46 | 33.52113 | -15.82359 | 19294 ft | 315 kts | 228° |
| 2026-05-08 11:46 | 33.50519 | -15.84215 | 19050 ft | 326 kts | 228° |
| 2026-05-08 11:47 | 33.48882 | -15.86127 | 18812 ft | 329 kts | 228° |
| 2026-05-08 11:47 | 33.47245 | -15.88039 | 18476 ft | 327 kts | 228° |
| 2026-05-08 11:47 | 33.45615 | -15.89946 | 17930 ft | 327 kts | 228° |
| 2026-05-08 11:47 | 33.43996 | -15.91840 | 17396 ft | 323 kts | 227° |
| 2026-05-08 11:48 | 33.42402 | -15.93700 | 16886 ft | 317 kts | 228° |
| 2026-05-08 11:48 | 33.40856 | -15.95507 | 16395 ft | 312 kts | 228° |
| 2026-05-08 11:48 | 33.39312 | -15.97313 | 15913 ft | 308 kts | 228° |
| 2026-05-08 11:48 | 33.37787 | -15.99095 | 15435 ft | 304 kts | 228° |
| 2026-05-08 11:49 | 33.36278 | -16.00856 | 14973 ft | 301 kts | 228° |
| 2026-05-08 11:49 | 33.34781 | -16.02603 | 14512 ft | 299 kts | 228° |
| 2026-05-08 11:49 | 33.33299 | -16.04334 | 14059 ft | 296 kts | 228° |
| 2026-05-08 11:49 | 33.31842 | -16.06034 | 13608 ft | 294 kts | 228° |
| 2026-05-08 11:50 | 33.30382 | -16.07735 | 13144 ft | 291 kts | 228° |
| 2026-05-08 11:50 | 33.28938 | -16.09415 | 12715 ft | 287 kts | 228° |
| 2026-05-08 11:50 | 33.27512 | -16.11074 | 12291 ft | 283 kts | 228° |
| 2026-05-08 11:50 | 33.26058 | -16.12773 | 11856 ft | 307 kts | 228° |
| 2026-05-08 11:51 | 33.24480 | -16.14619 | 11394 ft | 323 kts | 228° |
| 2026-05-08 11:51 | 33.22853 | -16.16512 | 10922 ft | 327 kts | 227° |
| 2026-05-08 11:51 | 33.21241 | -16.18379 | 10454 ft | 325 kts | 227° |
| 2026-05-08 11:51 | 33.19651 | -16.20216 | 10266 ft | 310 kts | 227° |
| 2026-05-08 11:52 | 33.18135 | -16.21967 | 10137 ft | 295 kts | 228° |
| 2026-05-08 11:52 | 33.16693 | -16.23634 | 10012 ft | 280 kts | 228° |
| 2026-05-08 11:52 | 33.15322 | -16.25220 | 9906 ft | 266 kts | 228° |
| 2026-05-08 11:52 | 33.14043 | -16.26700 | 9858 ft | 251 kts | 228° |
| 2026-05-08 11:53 | 33.12806 | -16.28134 | 9851 ft | 250 kts | 229° |
| 2026-05-08 11:53 | 33.11544 | -16.29604 | 9829 ft | 253 kts | 229° |
| 2026-05-08 11:53 | 33.10285 | -16.31067 | 9573 ft | 253 kts | 229° |
| 2026-05-08 11:53 | 33.09033 | -16.32518 | 8923 ft | 257 kts | 229° |
| 2026-05-08 11:54 | 33.07751 | -16.34005 | 8581 ft | 255 kts | 228° |
| 2026-05-08 11:54 | 33.06478 | -16.35476 | 8132 ft | 255 kts | 229° |
| 2026-05-08 11:54 | 33.05202 | -16.36949 | 7684 ft | 254 kts | 229° |
| 2026-05-08 11:54 | 33.03943 | -16.38402 | 7181 ft | 257 kts | 229° |
| 2026-05-08 11:55 | 33.02660 | -16.39881 | 6861 ft | 253 kts | 229° |
| 2026-05-08 11:55 | 33.01396 | -16.41336 | 6474 ft | 251 kts | 229° |
| 2026-05-08 11:55 | 33.00140 | -16.42783 | 6077 ft | 250 kts | 228° |
| 2026-05-08 11:55 | 32.98886 | -16.44230 | 5641 ft | 250 kts | 228° |
| 2026-05-08 11:56 | 32.97650 | -16.45655 | 5279 ft | 248 kts | 228° |
| 2026-05-08 11:56 | 32.96417 | -16.47074 | 4952 ft | 244 kts | 228° |
| 2026-05-08 11:56 | 32.95204 | -16.48470 | 4635 ft | 240 kts | 228° |
| 2026-05-08 11:56 | 32.94018 | -16.49835 | 4380 ft | 234 kts | 228° |
| 2026-05-08 11:57 | 32.92842 | -16.51191 | 4145 ft | 236 kts | 228° |
| 2026-05-08 11:57 | 32.91618 | -16.52561 | 3829 ft | 245 kts | 226° |
| 2026-05-08 11:57 | 32.90336 | -16.53928 | 3495 ft | 247 kts | 225° |
| 2026-05-08 11:57 | 32.89061 | -16.55268 | 3174 ft | 245 kts | 225° |
| 2026-05-08 11:58 | 32.87790 | -16.56603 | 3034 ft | 242 kts | 225° |
| 2026-05-08 11:58 | 32.86559 | -16.57903 | 3007 ft | 230 kts | 226° |
| 2026-05-08 11:58 | 32.85400 | -16.59128 | 3006 ft | 215 kts | 226° |
| 2026-05-08 11:59 | 32.83365 | -16.61459 | 2957 ft | 200 kts | 230° |
| 2026-05-08 11:59 | 32.82402 | -16.62618 | 2837 ft | 191 kts | 230° |
| 2026-05-08 11:59 | 32.81492 | -16.63699 | 2776 ft | 177 kts | 231° |
| 2026-05-08 11:59 | 32.80662 | -16.64674 | 2700 ft | 160 kts | 231° |
| 2026-05-08 12:00 | 32.79917 | -16.65545 | 2578 ft | 140 kts | 231° |
| 2026-05-08 12:00 | 32.79262 | -16.66315 | 2398 ft | 127 kts | 231° |
| 2026-05-08 12:00 | 32.78644 | -16.67053 | 2089 ft | 124 kts | 232° |
| 2026-05-08 12:00 | 32.78038 | -16.67777 | 1933 ft | 127 kts | 231° |
| 2026-05-08 12:01 | 32.77420 | -16.68522 | 1837 ft | 126 kts | 231° |
| 2026-05-08 12:01 | 32.76802 | -16.69263 | 1760 ft | 125 kts | 232° |
| 2026-05-08 12:01 | 32.76161 | -16.69998 | 1743 ft | 131 kts | 231° |
| 2026-05-08 12:01 | 32.75510 | -16.70769 | 1594 ft | 128 kts | 234° |
| 2026-05-08 12:02 | 32.74887 | -16.71491 | 1469 ft | 130 kts | 235° |
| 2026-05-08 12:02 | 32.74278 | -16.72254 | 1187 ft | 129 kts | 234° |
| 2026-05-08 12:02 | 32.73648 | -16.72963 | 1016 ft | 124 kts | 229° |
| 2026-05-08 12:02 | 32.73018 | -16.73687 | 1019 ft | 121 kts | 231° |
| 2026-05-08 12:03 | 32.72378 | -16.74419 | 815 ft | 129 kts | 228° |
| 2026-05-08 12:03 | 32.71756 | -16.75144 | 612 ft | 125 kts | 227° |
| 2026-05-08 12:03 | 32.71116 | -16.75890 | 357 ft | 130 kts | 227° |
| 2026-05-08 12:03 | 32.70482 | -16.76629 | 214 ft | 127 kts | 227° |
| 2026-05-08 12:04 | 32.69938 | -16.77281 | 176 ft | 77 kts | 224° |
| 2026-05-08 12:04 | 32.69647 | -16.77617 | 176 ft | 52 kts | 223° |
| 2026-05-08 12:04 | 32.69421 | -16.77877 | 176 ft | 32 kts | 225° |
| 2026-05-08 12:04 | 32.69332 | -16.77967 | 176 ft | 8 kts | 178° |
| 2026-05-08 12:05 | 32.69289 | -16.77914 | 176 ft | 11 kts | 98° |
| 2026-05-08 12:05 | 32.69333 | -16.77827 | 176 ft | 13 kts | 46° |
| 2026-05-08 12:05 | 32.69393 | -16.77733 | 176 ft | 8 kts | 49° |
| 2026-05-08 12:05 | 32.69380 | -16.77686 | 176 ft | 8 kts | 135° |
| 2026-05-08 12:06 | 32.69359 | -16.77664 | 176 ft | 0 kts | 138° |